sensor_id;sensor_type;location;lat;lon;timestamp;temperature;humidity
64997;SHT31;51545;51.568;6.998;2023-07-16T00:00:06;18.89;90.93
64997;SHT31;51545;51.568;6.998;2023-07-16T00:02:34;18.94;90.93
64997;SHT31;51545;51.568;6.998;2023-07-16T00:04:59;18.95;91.57
64997;SHT31;51545;51.568;6.998;2023-07-16T00:07:25;18.98;91.41
64997;SHT31;51545;51.568;6.998;2023-07-16T00:09:50;18.88;91.67
64997;SHT31;51545;51.568;6.998;2023-07-16T00:12:16;18.84;92.40
64997;SHT31;51545;51.568;6.998;2023-07-16T00:14:41;18.80;92.45
64997;SHT31;51545;51.568;6.998;2023-07-16T00:17:07;18.77;92.57
64997;SHT31;51545;51.568;6.998;2023-07-16T00:19:32;18.81;92.54
64997;SHT31;51545;51.568;6.998;2023-07-16T00:21:58;18.77;92.63
64997;SHT31;51545;51.568;6.998;2023-07-16T00:24:23;18.71;93.12
64997;SHT31;51545;51.568;6.998;2023-07-16T00:26:49;18.78;93.06
64997;SHT31;51545;51.568;6.998;2023-07-16T00:29:14;18.61;93.42
64997;SHT31;51545;51.568;6.998;2023-07-16T00:31:39;18.56;93.71
64997;SHT31;51545;51.568;6.998;2023-07-16T00:34:05;18.57;93.83
64997;SHT31;51545;51.568;6.998;2023-07-16T00:36:30;18.56;93.86
64997;SHT31;51545;51.568;6.998;2023-07-16T00:38:56;18.54;93.77
64997;SHT31;51545;51.568;6.998;2023-07-16T00:41:21;18.52;94.25
64997;SHT31;51545;51.568;6.998;2023-07-16T00:43:47;18.50;93.83
64997;SHT31;51545;51.568;6.998;2023-07-16T00:46:12;18.50;94.19
64997;SHT31;51545;51.568;6.998;2023-07-16T00:48:38;18.54;93.96
64997;SHT31;51545;51.568;6.998;2023-07-16T00:51:05;18.52;94.40
64997;SHT31;51545;51.568;6.998;2023-07-16T00:53:31;18.40;94.73
64997;SHT31;51545;51.568;6.998;2023-07-16T00:55:57;18.39;95.00
64997;SHT31;51545;51.568;6.998;2023-07-16T00:58:22;18.37;95.05
64997;SHT31;51545;51.568;6.998;2023-07-16T01:00:48;18.37;95.21
64997;SHT31;51545;51.568;6.998;2023-07-16T01:03:14;18.23;95.69
64997;SHT31;51545;51.568;6.998;2023-07-16T01:08:11;18.22;95.88
64997;SHT31;51545;51.568;6.998;2023-07-16T01:10:38;18.16;96.35
64997;SHT31;51545;51.568;6.998;2023-07-16T01:13:05;18.09;96.48
64997;SHT31;51545;51.568;6.998;2023-07-16T01:15:31;18.02;96.67
64997;SHT31;51545;51.568;6.998;2023-07-16T01:17:56;18.02;96.91
64997;SHT31;51545;51.568;6.998;2023-07-16T01:20:22;17.95;96.92
64997;SHT31;51545;51.568;6.998;2023-07-16T01:25:26;17.91;97.09
64997;SHT31;51545;51.568;6.998;2023-07-16T01:30:36;17.88;97.11
64997;SHT31;51545;51.568;6.998;2023-07-16T01:33:04;17.88;97.20
64997;SHT31;51545;51.568;6.998;2023-07-16T01:35:30;17.82;97.44
64997;SHT31;51545;51.568;6.998;2023-07-16T01:37:57;17.89;97.25
64997;SHT31;51545;51.568;6.998;2023-07-16T01:40:22;18.06;96.90
64997;SHT31;51545;51.568;6.998;2023-07-16T01:42:48;18.02;97.04
64997;SHT31;51545;51.568;6.998;2023-07-16T01:45:13;18.05;96.46
64997;SHT31;51545;51.568;6.998;2023-07-16T01:47:40;17.89;96.60
64997;SHT31;51545;51.568;6.998;2023-07-16T01:50:34;17.82;97.17
64997;SHT31;51545;51.568;6.998;2023-07-16T01:53:00;17.77;97.09
64997;SHT31;51545;51.568;6.998;2023-07-16T01:55:26;17.66;97.51
64997;SHT31;51545;51.568;6.998;2023-07-16T01:57:51;17.66;97.59
64997;SHT31;51545;51.568;6.998;2023-07-16T02:00:16;17.61;97.45
64997;SHT31;51545;51.568;6.998;2023-07-16T02:02:42;17.63;97.30
64997;SHT31;51545;51.568;6.998;2023-07-16T02:05:08;17.54;97.44
64997;SHT31;51545;51.568;6.998;2023-07-16T02:07:33;17.58;97.19
64997;SHT31;51545;51.568;6.998;2023-07-16T02:09:59;17.54;97.40
64997;SHT31;51545;51.568;6.998;2023-07-16T02:12:24;17.61;97.01
64997;SHT31;51545;51.568;6.998;2023-07-16T02:14:50;17.50;97.29
64997;SHT31;51545;51.568;6.998;2023-07-16T02:17:15;17.50;97.22
64997;SHT31;51545;51.568;6.998;2023-07-16T02:19:41;17.49;97.45
64997;SHT31;51545;51.568;6.998;2023-07-16T02:22:07;17.53;97.14
64997;SHT31;51545;51.568;6.998;2023-07-16T02:24:32;17.42;97.46
64997;SHT31;51545;51.568;6.998;2023-07-16T02:26:58;17.50;97.25
64997;SHT31;51545;51.568;6.998;2023-07-16T02:29:23;17.54;97.16
64997;SHT31;51545;51.568;6.998;2023-07-16T02:31:49;17.39;97.60
64997;SHT31;51545;51.568;6.998;2023-07-16T02:34:14;17.42;97.54
64997;SHT31;51545;51.568;6.998;2023-07-16T02:36:40;17.43;97.28
64997;SHT31;51545;51.568;6.998;2023-07-16T02:39:05;17.44;97.19
64997;SHT31;51545;51.568;6.998;2023-07-16T02:41:31;17.43;97.23
64997;SHT31;51545;51.568;6.998;2023-07-16T02:44:00;17.42;97.25
64997;SHT31;51545;51.568;6.998;2023-07-16T02:46:26;17.46;97.21
64997;SHT31;51545;51.568;6.998;2023-07-16T02:48:52;17.47;97.00
64997;SHT31;51545;51.568;6.998;2023-07-16T02:51:18;17.55;96.59
64997;SHT31;51545;51.568;6.998;2023-07-16T02:53:43;17.55;96.16
64997;SHT31;51545;51.568;6.998;2023-07-16T02:56:08;17.53;96.02
64997;SHT31;51545;51.568;6.998;2023-07-16T02:58:34;17.54;95.79
64997;SHT31;51545;51.568;6.998;2023-07-16T03:00:59;17.60;95.37
64997;SHT31;51545;51.568;6.998;2023-07-16T03:03:25;17.58;95.07
64997;SHT31;51545;51.568;6.998;2023-07-16T03:05:50;17.63;94.82
64997;SHT31;51545;51.568;6.998;2023-07-16T03:08:16;17.64;94.97
64997;SHT31;51545;51.568;6.998;2023-07-16T03:10:41;17.67;94.74
64997;SHT31;51545;51.568;6.998;2023-07-16T03:13:06;17.78;94.67
64997;SHT31;51545;51.568;6.998;2023-07-16T03:15:32;17.71;94.40
64997;SHT31;51545;51.568;6.998;2023-07-16T03:17:57;17.74;94.15
64997;SHT31;51545;51.568;6.998;2023-07-16T03:20:23;17.75;94.14
64997;SHT31;51545;51.568;6.998;2023-07-16T03:22:48;17.80;93.84
64997;SHT31;51545;51.568;6.998;2023-07-16T03:25:14;17.77;93.79
64997;SHT31;51545;51.568;6.998;2023-07-16T03:27:39;17.75;93.70
64997;SHT31;51545;51.568;6.998;2023-07-16T03:30:05;17.73;93.79
64997;SHT31;51545;51.568;6.998;2023-07-16T03:32:31;17.67;93.55
64997;SHT31;51545;51.568;6.998;2023-07-16T03:34:57;17.73;92.92
64997;SHT31;51545;51.568;6.998;2023-07-16T03:37:22;17.66;93.24
64997;SHT31;51545;51.568;6.998;2023-07-16T03:39:48;17.63;92.72
64997;SHT31;51545;51.568;6.998;2023-07-16T03:42:13;17.67;92.40
64997;SHT31;51545;51.568;6.998;2023-07-16T03:44:39;17.64;92.27
64997;SHT31;51545;51.568;6.998;2023-07-16T03:47:04;17.63;91.46
64997;SHT31;51545;51.568;6.998;2023-07-16T03:49:30;17.61;91.18
64997;SHT31;51545;51.568;6.998;2023-07-16T03:51:55;17.60;91.38
64997;SHT31;51545;51.568;6.998;2023-07-16T03:54:21;17.55;91.09
64997;SHT31;51545;51.568;6.998;2023-07-16T03:56:46;17.58;90.27
64997;SHT31;51545;51.568;6.998;2023-07-16T03:59:11;17.49;89.90
64997;SHT31;51545;51.568;6.998;2023-07-16T04:01:37;17.51;88.84
64997;SHT31;51545;51.568;6.998;2023-07-16T04:04:02;17.53;87.50
64997;SHT31;51545;51.568;6.998;2023-07-16T04:06:28;17.50;86.95
64997;SHT31;51545;51.568;6.998;2023-07-16T04:08:53;17.51;86.52
64997;SHT31;51545;51.568;6.998;2023-07-16T04:11:19;17.44;86.56
64997;SHT31;51545;51.568;6.998;2023-07-16T04:13:44;17.43;86.54
64997;SHT31;51545;51.568;6.998;2023-07-16T04:16:10;17.49;85.63
64997;SHT31;51545;51.568;6.998;2023-07-16T04:18:35;17.60;84.76
64997;SHT31;51545;51.568;6.998;2023-07-16T04:21:00;17.60;84.39
64997;SHT31;51545;51.568;6.998;2023-07-16T04:23:26;17.58;83.98
64997;SHT31;51545;51.568;6.998;2023-07-16T04:25:52;17.60;84.19
64997;SHT31;51545;51.568;6.998;2023-07-16T04:28:18;17.51;84.56
64997;SHT31;51545;51.568;6.998;2023-07-16T04:30:44;17.50;84.79
64997;SHT31;51545;51.568;6.998;2023-07-16T04:33:10;17.44;84.92
64997;SHT31;51545;51.568;6.998;2023-07-16T04:35:35;17.51;84.28
64997;SHT31;51545;51.568;6.998;2023-07-16T04:38:01;17.57;83.87
64997;SHT31;51545;51.568;6.998;2023-07-16T04:40:27;17.64;82.52
64997;SHT31;51545;51.568;6.998;2023-07-16T04:42:54;17.64;82.89
64997;SHT31;51545;51.568;6.998;2023-07-16T04:45:19;17.66;82.10
64997;SHT31;51545;51.568;6.998;2023-07-16T04:47:45;17.70;81.66
64997;SHT31;51545;51.568;6.998;2023-07-16T04:50:10;17.69;81.92
64997;SHT31;51545;51.568;6.998;2023-07-16T04:52:37;17.67;81.58
64997;SHT31;51545;51.568;6.998;2023-07-16T04:55:03;17.66;81.69
64997;SHT31;51545;51.568;6.998;2023-07-16T04:57:28;17.67;81.41
64997;SHT31;51545;51.568;6.998;2023-07-16T04:59:54;17.66;81.95
64997;SHT31;51545;51.568;6.998;2023-07-16T05:02:20;17.73;82.35
64997;SHT31;51545;51.568;6.998;2023-07-16T05:04:46;17.69;82.08
64997;SHT31;51545;51.568;6.998;2023-07-16T05:07:13;17.73;81.59
64997;SHT31;51545;51.568;6.998;2023-07-16T05:09:39;17.73;81.65
64997;SHT31;51545;51.568;6.998;2023-07-16T05:12:04;17.71;81.66
64997;SHT31;51545;51.568;6.998;2023-07-16T05:14:30;17.77;81.40
64997;SHT31;51545;51.568;6.998;2023-07-16T05:16:56;17.75;80.50
64997;SHT31;51545;51.568;6.998;2023-07-16T05:19:21;17.82;79.62
64997;SHT31;51545;51.568;6.998;2023-07-16T05:21:47;17.88;79.23
64997;SHT31;51545;51.568;6.998;2023-07-16T05:24:13;17.88;78.78
64997;SHT31;51545;51.568;6.998;2023-07-16T05:26:38;17.88;78.68
64997;SHT31;51545;51.568;6.998;2023-07-16T05:29:04;17.92;79.19
64997;SHT31;51545;51.568;6.998;2023-07-16T05:31:29;17.94;78.56
64997;SHT31;51545;51.568;6.998;2023-07-16T05:33:55;17.97;78.42
64997;SHT31;51545;51.568;6.998;2023-07-16T05:36:21;18.01;78.43
64997;SHT31;51545;51.568;6.998;2023-07-16T05:38:46;18.04;78.63
64997;SHT31;51545;51.568;6.998;2023-07-16T05:41:11;18.05;79.36
64997;SHT31;51545;51.568;6.998;2023-07-16T05:43:37;18.05;79.55
64997;SHT31;51545;51.568;6.998;2023-07-16T05:46:02;18.06;79.49
64997;SHT31;51545;51.568;6.998;2023-07-16T05:48:30;18.13;79.49
64997;SHT31;51545;51.568;6.998;2023-07-16T05:50:56;18.12;79.20
64997;SHT31;51545;51.568;6.998;2023-07-16T05:53:21;18.12;78.88
64997;SHT31;51545;51.568;6.998;2023-07-16T05:55:46;18.15;79.19
64997;SHT31;51545;51.568;6.998;2023-07-16T05:58:14;18.25;79.10
64997;SHT31;51545;51.568;6.998;2023-07-16T06:00:40;18.30;78.28
64997;SHT31;51545;51.568;6.998;2023-07-16T06:03:05;18.23;78.38
64997;SHT31;51545;51.568;6.998;2023-07-16T06:05:31;18.32;77.69
64997;SHT31;51545;51.568;6.998;2023-07-16T06:07:59;18.25;76.86
64997;SHT31;51545;51.568;6.998;2023-07-16T06:10:25;18.30;77.11
64997;SHT31;51545;51.568;6.998;2023-07-16T06:12:50;18.32;76.37
64997;SHT31;51545;51.568;6.998;2023-07-16T06:15:16;18.30;76.06
64997;SHT31;51545;51.568;6.998;2023-07-16T06:17:41;18.33;76.01
64997;SHT31;51545;51.568;6.998;2023-07-16T06:20:07;18.37;75.57
64997;SHT31;51545;51.568;6.998;2023-07-16T06:22:33;18.34;75.36
64997;SHT31;51545;51.568;6.998;2023-07-16T06:24:58;18.43;75.27
64997;SHT31;51545;51.568;6.998;2023-07-16T06:27:24;18.47;74.95
64997;SHT31;51545;51.568;6.998;2023-07-16T06:29:50;18.42;75.08
64997;SHT31;51545;51.568;6.998;2023-07-16T06:32:16;18.56;75.12
64997;SHT31;51545;51.568;6.998;2023-07-16T06:34:41;18.61;74.74
64997;SHT31;51545;51.568;6.998;2023-07-16T06:37:07;18.40;73.70
64997;SHT31;51545;51.568;6.998;2023-07-16T06:39:32;18.42;74.41
64997;SHT31;51545;51.568;6.998;2023-07-16T06:41:58;18.49;73.86
64997;SHT31;51545;51.568;6.998;2023-07-16T06:44:23;18.54;73.07
64997;SHT31;51545;51.568;6.998;2023-07-16T06:46:49;18.53;73.95
64997;SHT31;51545;51.568;6.998;2023-07-16T06:49:14;18.60;73.56
64997;SHT31;51545;51.568;6.998;2023-07-16T06:51:40;18.81;73.83
64997;SHT31;51545;51.568;6.998;2023-07-16T06:54:06;18.64;73.05
64997;SHT31;51545;51.568;6.998;2023-07-16T06:56:32;18.71;72.48
64997;SHT31;51545;51.568;6.998;2023-07-16T06:58:57;18.74;72.05
64997;SHT31;51545;51.568;6.998;2023-07-16T07:01:23;18.78;73.01
64997;SHT31;51545;51.568;6.998;2023-07-16T07:03:48;18.70;72.45
64997;SHT31;51545;51.568;6.998;2023-07-16T07:06:14;18.75;71.80
64997;SHT31;51545;51.568;6.998;2023-07-16T07:08:39;18.87;72.20
64997;SHT31;51545;51.568;6.998;2023-07-16T07:11:05;18.91;72.24
64997;SHT31;51545;51.568;6.998;2023-07-16T07:13:30;18.96;72.29
64997;SHT31;51545;51.568;6.998;2023-07-16T07:15:56;19.05;72.55
64997;SHT31;51545;51.568;6.998;2023-07-16T07:18:22;19.35;72.66
64997;SHT31;51545;51.568;6.998;2023-07-16T07:20:47;19.19;71.59
64997;SHT31;51545;51.568;6.998;2023-07-16T07:23:13;19.29;72.11
64997;SHT31;51545;51.568;6.998;2023-07-16T07:25:39;19.37;71.84
64997;SHT31;51545;51.568;6.998;2023-07-16T07:28:05;19.58;72.43
64997;SHT31;51545;51.568;6.998;2023-07-16T07:30:30;19.40;72.74
64997;SHT31;51545;51.568;6.998;2023-07-16T07:32:56;19.16;71.37
64997;SHT31;51545;51.568;6.998;2023-07-16T07:35:21;19.26;71.17
64997;SHT31;51545;51.568;6.998;2023-07-16T07:37:47;19.18;71.31
64997;SHT31;51545;51.568;6.998;2023-07-16T07:40:12;19.15;71.13
64997;SHT31;51545;51.568;6.998;2023-07-16T07:42:38;19.23;71.49
64997;SHT31;51545;51.568;6.998;2023-07-16T07:45:04;19.29;71.40
64997;SHT31;51545;51.568;6.998;2023-07-16T07:47:30;19.22;71.18
64997;SHT31;51545;51.568;6.998;2023-07-16T07:49:55;19.40;70.96
64997;SHT31;51545;51.568;6.998;2023-07-16T07:52:21;19.42;70.68
64997;SHT31;51545;51.568;6.998;2023-07-16T07:54:46;19.42;70.94
64997;SHT31;51545;51.568;6.998;2023-07-16T07:57:12;19.36;70.15
64997;SHT31;51545;51.568;6.998;2023-07-16T07:59:38;19.55;69.90
64997;SHT31;51545;51.568;6.998;2023-07-16T08:02:03;19.64;69.52
64997;SHT31;51545;51.568;6.998;2023-07-16T08:04:29;19.55;68.86
64997;SHT31;51545;51.568;6.998;2023-07-16T08:06:56;19.71;70.33
64997;SHT31;51545;51.568;6.998;2023-07-16T08:09:22;19.40;70.09
64997;SHT31;51545;51.568;6.998;2023-07-16T08:11:47;19.32;70.42
64997;SHT31;51545;51.568;6.998;2023-07-16T08:14:12;19.51;70.25
64997;SHT31;51545;51.568;6.998;2023-07-16T08:16:38;19.77;68.83
64997;SHT31;51545;51.568;6.998;2023-07-16T08:19:03;19.93;68.90
64997;SHT31;51545;51.568;6.998;2023-07-16T08:21:29;20.12;68.64
64997;SHT31;51545;51.568;6.998;2023-07-16T08:23:54;20.13;67.89
64997;SHT31;51545;51.568;6.998;2023-07-16T08:26:20;20.05;66.32
64997;SHT31;51545;51.568;6.998;2023-07-16T08:28:45;20.23;67.99
64997;SHT31;51545;51.568;6.998;2023-07-16T08:31:11;19.99;66.70
64997;SHT31;51545;51.568;6.998;2023-07-16T08:33:37;19.65;67.67
64997;SHT31;51545;51.568;6.998;2023-07-16T08:36:03;19.88;68.08
64997;SHT31;51545;51.568;6.998;2023-07-16T08:38:29;19.92;68.85
64997;SHT31;51545;51.568;6.998;2023-07-16T08:40:54;20.13;67.74
64997;SHT31;51545;51.568;6.998;2023-07-16T08:43:19;20.55;66.84
64997;SHT31;51545;51.568;6.998;2023-07-16T08:45:45;20.40;66.87
64997;SHT31;51545;51.568;6.998;2023-07-16T08:48:13;20.64;66.90
64997;SHT31;51545;51.568;6.998;2023-07-16T08:50:39;20.29;66.16
64997;SHT31;51545;51.568;6.998;2023-07-16T08:53:07;20.32;67.93
64997;SHT31;51545;51.568;6.998;2023-07-16T08:55:33;19.99;67.43
64997;SHT31;51545;51.568;6.998;2023-07-16T08:58:00;20.22;67.40
64997;SHT31;51545;51.568;6.998;2023-07-16T09:00:26;20.37;66.52
64997;SHT31;51545;51.568;6.998;2023-07-16T09:02:52;20.60;66.47
64997;SHT31;51545;51.568;6.998;2023-07-16T09:05:21;20.54;66.03
64997;SHT31;51545;51.568;6.998;2023-07-16T09:07:48;20.55;66.14
64997;SHT31;51545;51.568;6.998;2023-07-16T09:10:14;20.50;65.81
64997;SHT31;51545;51.568;6.998;2023-07-16T09:12:43;20.95;64.98
64997;SHT31;51545;51.568;6.998;2023-07-16T09:15:10;20.94;64.54
64997;SHT31;51545;51.568;6.998;2023-07-16T09:17:36;20.77;65.04
64997;SHT31;51545;51.568;6.998;2023-07-16T09:20:03;20.72;64.68
64997;SHT31;51545;51.568;6.998;2023-07-16T09:22:29;20.75;64.73
64997;SHT31;51545;51.568;6.998;2023-07-16T09:24:55;20.90;64.85
64997;SHT31;51545;51.568;6.998;2023-07-16T09:27:27;20.84;64.84
64997;SHT31;51545;51.568;6.998;2023-07-16T09:29:53;20.63;65.72
64997;SHT31;51545;51.568;6.998;2023-07-16T09:32:19;20.80;65.42
64997;SHT31;51545;51.568;6.998;2023-07-16T09:34:45;21.49;65.98
64997;SHT31;51545;51.568;6.998;2023-07-16T09:37:10;21.42;64.07
64997;SHT31;51545;51.568;6.998;2023-07-16T09:39:36;21.13;64.93
64997;SHT31;51545;51.568;6.998;2023-07-16T09:42:02;21.23;64.96
64997;SHT31;51545;51.568;6.998;2023-07-16T09:44:28;21.24;64.00
64997;SHT31;51545;51.568;6.998;2023-07-16T09:46:54;20.78;64.68
64997;SHT31;51545;51.568;6.998;2023-07-16T09:49:20;20.74;65.19
64997;SHT31;51545;51.568;6.998;2023-07-16T09:51:46;20.95;64.60
64997;SHT31;51545;51.568;6.998;2023-07-16T09:54:17;20.94;64.90
64997;SHT31;51545;51.568;6.998;2023-07-16T09:56:45;21.42;64.36
64997;SHT31;51545;51.568;6.998;2023-07-16T09:59:20;21.35;62.90
64997;SHT31;51545;51.568;6.998;2023-07-16T10:01:48;21.24;64.00
64997;SHT31;51545;51.568;6.998;2023-07-16T10:04:15;21.05;64.21
64997;SHT31;51545;51.568;6.998;2023-07-16T10:06:52;21.72;64.91
64997;SHT31;51545;51.568;6.998;2023-07-16T10:09:40;21.72;63.81
64997;SHT31;51545;51.568;6.998;2023-07-16T10:14:39;21.63;62.94
64997;SHT31;51545;51.568;6.998;2023-07-16T10:17:14;21.43;62.98
64997;SHT31;51545;51.568;6.998;2023-07-16T10:19:54;21.47;63.73
64997;SHT31;51545;51.568;6.998;2023-07-16T10:22:33;21.15;63.48
64997;SHT31;51545;51.568;6.998;2023-07-16T10:25:01;21.24;63.27
64997;SHT31;51545;51.568;6.998;2023-07-16T10:27:27;21.20;64.14
64997;SHT31;51545;51.568;6.998;2023-07-16T10:29:57;21.35;62.82
64997;SHT31;51545;51.568;6.998;2023-07-16T10:32:25;21.61;64.03
64997;SHT31;51545;51.568;6.998;2023-07-16T10:34:53;21.32;62.99
64997;SHT31;51545;51.568;6.998;2023-07-16T10:37:19;21.37;63.33
64997;SHT31;51545;51.568;6.998;2023-07-16T10:39:48;21.46;62.20
64997;SHT31;51545;51.568;6.998;2023-07-16T10:42:17;21.42;62.69
64997;SHT31;51545;51.568;6.998;2023-07-16T10:44:44;21.39;62.59
64997;SHT31;51545;51.568;6.998;2023-07-16T10:47:17;21.50;62.39
64997;SHT31;51545;51.568;6.998;2023-07-16T10:49:48;21.54;62.02
64997;SHT31;51545;51.568;6.998;2023-07-16T10:52:14;21.55;62.55
64997;SHT31;51545;51.568;6.998;2023-07-16T10:54:40;21.63;62.69
64997;SHT31;51545;51.568;6.998;2023-07-16T10:57:06;21.91;62.33
64997;SHT31;51545;51.568;6.998;2023-07-16T10:59:31;21.63;62.84
64997;SHT31;51545;51.568;6.998;2023-07-16T11:01:57;21.50;63.56
64997;SHT31;51545;51.568;6.998;2023-07-16T11:04:23;21.68;62.65
64997;SHT31;51545;51.568;6.998;2023-07-16T11:06:52;22.68;61.94
64997;SHT31;51545;51.568;6.998;2023-07-16T11:09:17;22.13;62.39
64997;SHT31;51545;51.568;6.998;2023-07-16T11:11:43;22.08;62.79
64997;SHT31;51545;51.568;6.998;2023-07-16T11:14:08;22.40;61.48
64997;SHT31;51545;51.568;6.998;2023-07-16T11:16:34;21.98;61.01
64997;SHT31;51545;51.568;6.998;2023-07-16T11:19:04;21.95;62.64
64997;SHT31;51545;51.568;6.998;2023-07-16T11:21:31;21.84;62.94
64997;SHT31;51545;51.568;6.998;2023-07-16T11:24:12;21.90;62.22
64997;SHT31;51545;51.568;6.998;2023-07-16T11:26:48;21.92;62.15
64997;SHT31;51545;51.568;6.998;2023-07-16T11:29:15;21.84;62.59
64997;SHT31;51545;51.568;6.998;2023-07-16T11:31:40;21.87;62.75
64997;SHT31;51545;51.568;6.998;2023-07-16T11:34:13;21.75;63.15
64997;SHT31;51545;51.568;6.998;2023-07-16T11:36:38;21.72;63.05
64997;SHT31;51545;51.568;6.998;2023-07-16T11:39:04;21.94;62.09
64997;SHT31;51545;51.568;6.998;2023-07-16T11:41:30;22.25;62.54
64997;SHT31;51545;51.568;6.998;2023-07-16T11:43:59;22.18;61.05
64997;SHT31;51545;51.568;6.998;2023-07-16T11:46:30;21.97;62.34
64997;SHT31;51545;51.568;6.998;2023-07-16T11:49:00;21.88;61.21
64997;SHT31;51545;51.568;6.998;2023-07-16T11:51:26;22.09;61.94
64997;SHT31;51545;51.568;6.998;2023-07-16T11:53:52;21.77;60.01
64997;SHT31;51545;51.568;6.998;2023-07-16T11:56:17;21.65;60.73
64997;SHT31;51545;51.568;6.998;2023-07-16T11:58:43;21.75;61.07
64997;SHT31;51545;51.568;6.998;2023-07-16T12:01:09;21.79;61.02
64997;SHT31;51545;51.568;6.998;2023-07-16T12:03:34;21.99;61.38
64997;SHT31;51545;51.568;6.998;2023-07-16T12:06:00;22.19;61.04
64997;SHT31;51545;51.568;6.998;2023-07-16T12:08:25;22.50;60.64
64997;SHT31;51545;51.568;6.998;2023-07-16T12:10:50;22.57;61.25
64997;SHT31;51545;51.568;6.998;2023-07-16T12:13:16;22.53;60.61
64997;SHT31;51545;51.568;6.998;2023-07-16T12:15:42;22.77;61.38
64997;SHT31;51545;51.568;6.998;2023-07-16T12:18:07;22.43;60.92
64997;SHT31;51545;51.568;6.998;2023-07-16T12:20:35;22.57;61.93
64997;SHT31;51545;51.568;6.998;2023-07-16T12:23:04;22.59;61.90
64997;SHT31;51545;51.568;6.998;2023-07-16T12:25:30;22.20;61.18
64997;SHT31;51545;51.568;6.998;2023-07-16T12:27:56;22.12;61.41
64997;SHT31;51545;51.568;6.998;2023-07-16T12:30:23;22.04;61.33
64997;SHT31;51545;51.568;6.998;2023-07-16T12:32:48;21.91;61.54
64997;SHT31;51545;51.568;6.998;2023-07-16T12:35:14;21.90;61.35
64997;SHT31;51545;51.568;6.998;2023-07-16T12:37:39;22.02;61.50
64997;SHT31;51545;51.568;6.998;2023-07-16T12:40:05;22.20;61.31
64997;SHT31;51545;51.568;6.998;2023-07-16T12:42:32;22.53;61.01
64997;SHT31;51545;51.568;6.998;2023-07-16T12:44:58;22.74;62.32
64997;SHT31;51545;51.568;6.998;2023-07-16T12:47:24;22.50;61.68
64997;SHT31;51545;51.568;6.998;2023-07-16T12:49:49;22.26;61.30
64997;SHT31;51545;51.568;6.998;2023-07-16T12:52:15;21.99;61.49
64997;SHT31;51545;51.568;6.998;2023-07-16T12:54:40;21.92;61.16
64997;SHT31;51545;51.568;6.998;2023-07-16T12:57:05;21.94;61.77
64997;SHT31;51545;51.568;6.998;2023-07-16T12:59:31;22.35;61.26
64997;SHT31;51545;51.568;6.998;2023-07-16T13:01:57;22.57;61.62
64997;SHT31;51545;51.568;6.998;2023-07-16T13:04:22;22.84;60.72
64997;SHT31;51545;51.568;6.998;2023-07-16T13:06:48;23.32;59.87
64997;SHT31;51545;51.568;6.998;2023-07-16T13:09:14;22.91;60.43
64997;SHT31;51545;51.568;6.998;2023-07-16T13:11:40;22.94;60.30
64997;SHT31;51545;51.568;6.998;2023-07-16T13:14:06;23.16;60.42
64997;SHT31;51545;51.568;6.998;2023-07-16T13:16:32;22.87;60.61
64997;SHT31;51545;51.568;6.998;2023-07-16T13:18:57;23.03;60.85
64997;SHT31;51545;51.568;6.998;2023-07-16T13:21:22;22.99;61.57
64997;SHT31;51545;51.568;6.998;2023-07-16T13:23:48;22.92;61.40
64997;SHT31;51545;51.568;6.998;2023-07-16T13:26:13;23.94;58.68
64997;SHT31;51545;51.568;6.998;2023-07-16T13:28:39;24.37;56.73
64997;SHT31;51545;51.568;6.998;2023-07-16T13:31:05;24.16;57.94
64997;SHT31;51545;51.568;6.998;2023-07-16T13:33:31;23.51;59.32
64997;SHT31;51545;51.568;6.998;2023-07-16T13:35:56;23.02;59.55
64997;SHT31;51545;51.568;6.998;2023-07-16T13:38:25;23.22;60.54
64997;SHT31;51545;51.568;6.998;2023-07-16T13:40:50;23.68;59.42
64997;SHT31;51545;51.568;6.998;2023-07-16T13:43:16;24.82;56.34
64997;SHT31;51545;51.568;6.998;2023-07-16T13:45:41;23.73;57.62
64997;SHT31;51545;51.568;6.998;2023-07-16T13:48:06;24.08;57.06
64997;SHT31;51545;51.568;6.998;2023-07-16T13:50:33;24.56;55.43
64997;SHT31;51545;51.568;6.998;2023-07-16T13:52:59;25.27;54.26
64997;SHT31;51545;51.568;6.998;2023-07-16T13:55:26;25.33;53.55
64997;SHT31;51545;51.568;6.998;2023-07-16T13:57:54;25.74;54.21
64997;SHT31;51545;51.568;6.998;2023-07-16T14:00:22;25.12;52.89
64997;SHT31;51545;51.568;6.998;2023-07-16T14:02:48;24.25;54.63
64997;SHT31;51545;51.568;6.998;2023-07-16T14:05:13;25.25;52.77
64997;SHT31;51545;51.568;6.998;2023-07-16T14:07:39;25.62;53.15
64997;SHT31;51545;51.568;6.998;2023-07-16T14:10:05;25.98;51.19
64997;SHT31;51545;51.568;6.998;2023-07-16T14:12:31;25.98;53.04
64997;SHT31;51545;51.568;6.998;2023-07-16T14:14:56;24.47;54.37
64997;SHT31;51545;51.568;6.998;2023-07-16T14:17:22;24.35;54.95
64997;SHT31;51545;51.568;6.998;2023-07-16T14:19:48;25.15;52.84
64997;SHT31;51545;51.568;6.998;2023-07-16T14:22:14;25.64;52.77
64997;SHT31;51545;51.568;6.998;2023-07-16T14:24:40;26.02;53.50
64997;SHT31;51545;51.568;6.998;2023-07-16T14:27:06;25.51;51.75
64997;SHT31;51545;51.568;6.998;2023-07-16T14:29:33;24.99;52.19
64997;SHT31;51545;51.568;6.998;2023-07-16T14:32:01;26.01;52.20
64997;SHT31;51545;51.568;6.998;2023-07-16T14:34:27;26.26;51.68
64997;SHT31;51545;51.568;6.998;2023-07-16T14:36:52;25.74;52.20
64997;SHT31;51545;51.568;6.998;2023-07-16T14:39:18;25.53;54.55
64997;SHT31;51545;51.568;6.998;2023-07-16T14:41:44;26.04;50.67
64997;SHT31;51545;51.568;6.998;2023-07-16T14:44:10;26.77;50.24
64997;SHT31;51545;51.568;6.998;2023-07-16T14:46:35;26.88;47.36
64997;SHT31;51545;51.568;6.998;2023-07-16T14:49:02;26.92;48.80
64997;SHT31;51545;51.568;6.998;2023-07-16T14:51:28;26.10;49.62
64997;SHT31;51545;51.568;6.998;2023-07-16T14:53:54;25.04;51.51
64997;SHT31;51545;51.568;6.998;2023-07-16T14:56:20;24.68;52.29
64997;SHT31;51545;51.568;6.998;2023-07-16T14:58:46;24.90;52.14
64997;SHT31;51545;51.568;6.998;2023-07-16T15:01:11;24.59;52.60
64997;SHT31;51545;51.568;6.998;2023-07-16T15:03:37;24.39;52.69
64997;SHT31;51545;51.568;6.998;2023-07-16T15:06:05;24.54;53.18
64997;SHT31;51545;51.568;6.998;2023-07-16T15:08:31;24.25;52.94
64997;SHT31;51545;51.568;6.998;2023-07-16T15:10:57;23.94;53.58
64997;SHT31;51545;51.568;6.998;2023-07-16T15:13:24;24.09;53.56
64997;SHT31;51545;51.568;6.998;2023-07-16T15:15:53;24.35;52.99
64997;SHT31;51545;51.568;6.998;2023-07-16T15:18:19;25.22;51.51
64997;SHT31;51545;51.568;6.998;2023-07-16T15:20:45;25.11;51.15
64997;SHT31;51545;51.568;6.998;2023-07-16T15:23:11;24.57;53.07
64997;SHT31;51545;51.568;6.998;2023-07-16T15:25:37;24.08;53.13
64997;SHT31;51545;51.568;6.998;2023-07-16T15:28:05;24.26;52.64
64997;SHT31;51545;51.568;6.998;2023-07-16T15:30:30;24.25;52.78
64997;SHT31;51545;51.568;6.998;2023-07-16T15:32:56;24.33;53.11